Hermon, Maine
Current Conditions -  °F | °C
As of 9:53 PM on Sunday 23 Nov 2014 (Local Time) from KBGR Reporting Station
Broken Clouds Broken Clouds  
Wind Chill: 38°   Ceiling: 4400
Heat Index: 38°   Visibility: 10mi
Dew Point: 33°   Wind: 0mph
Humidity: 83%   Direction: NA
Pressure: 30.14"   Gusts: NA
Location:  44.8521°N, 68.8311°W
Report Text: KBGR 240253Z 00000KT 10SM BKN044 03/01 A3014 RMK AO2 SLP208 T00330006 50007
Loading
Personal Weather Stations






























Interactive Weather Map New forecast layout! Learn more

10-Day Weather Forecast

Advertisements
Track Severe Weather on mobile